LZM897 LIBD-LGAV
Flight info
| Callsign | LZM897 |
|---|---|
| Flight time | 1h 0m |
| Altitude | 35000 |
| Route | DOLON DCT KAPPO DCT NOSTO UN7 NEMES |
| Aircraft | A320/M-SDE3FGHIRWY/LB1 |
Departure
| Time | 2026-05-05 17:13 |
|---|---|
| Airport | Bari Karol Wojtyła International Airport (LIBD) |
Arrival
| Time | 2026-05-05 18:13 |
|---|---|
| Airport | Athens Eleftherios Venizelos International Airport (LGAV) |
| Time | Latitude | Longitude | Altitude | Speed | Heading |
|---|---|---|---|---|---|
| 2026-05-05 16:39 | 41.13507 | 16.76296 | 159 ft | 0 kts | 159° |
| 2026-05-05 17:00 | 41.13516 | 16.76291 | 159 ft | 4 kts | 160° |
| 2026-05-05 17:01 | 41.13541 | 16.76281 | 159 ft | 4 kts | 167° |
| 2026-05-05 17:01 | 41.13567 | 16.76276 | 158 ft | 4 kts | 188° |
| 2026-05-05 17:01 | 41.13587 | 16.76288 | 158 ft | 3 kts | 246° |
| 2026-05-05 17:01 | 41.13588 | 16.76291 | 158 ft | 0 kts | 249° |
| 2026-05-05 17:05 | 41.13587 | 16.76288 | 158 ft | 0 kts | 249° |
| 2026-05-05 17:05 | 41.13587 | 16.76287 | 158 ft | 0 kts | 249° |
| 2026-05-05 17:05 | 41.13582 | 16.76270 | 158 ft | 4 kts | 249° |
| 2026-05-05 17:05 | 41.13567 | 16.76217 | 158 ft | 8 kts | 249° |
| 2026-05-05 17:06 | 41.13557 | 16.76127 | 159 ft | 8 kts | 282° |
| 2026-05-05 17:06 | 41.13598 | 16.76067 | 158 ft | 10 kts | 322° |
| 2026-05-05 17:06 | 41.13638 | 16.75986 | 158 ft | 12 kts | 272° |
| 2026-05-05 17:06 | 41.13610 | 16.75869 | 158 ft | 15 kts | 249° |
| 2026-05-05 17:07 | 41.13568 | 16.75723 | 158 ft | 19 kts | 249° |
| 2026-05-05 17:07 | 41.13519 | 16.75544 | 158 ft | 23 kts | 251° |
| 2026-05-05 17:07 | 41.13459 | 16.75332 | 158 ft | 27 kts | 247° |
| 2026-05-05 17:07 | 41.13388 | 16.75088 | 158 ft | 30 kts | 250° |
| 2026-05-05 17:08 | 41.13310 | 16.74811 | 158 ft | 34 kts | 249° |
| 2026-05-05 17:08 | 41.13233 | 16.74541 | 158 ft | 20 kts | 250° |
| 2026-05-05 17:08 | 41.13181 | 16.74359 | 157 ft | 15 kts | 250° |
| 2026-05-05 17:08 | 41.13166 | 16.74249 | 157 ft | 11 kts | 288° |
| 2026-05-05 17:09 | 41.13194 | 16.74184 | 156 ft | 0 kts | 300° |
| 2026-05-05 17:09 | 41.13194 | 16.74183 | 156 ft | 0 kts | 300° |
| 2026-05-05 17:11 | 41.13204 | 16.74161 | 155 ft | 6 kts | 303° |
| 2026-05-05 17:12 | 41.13256 | 16.74111 | 149 ft | 14 kts | 346° |
| 2026-05-05 17:12 | 41.13325 | 16.74200 | 149 ft | 18 kts | 69° |
| 2026-05-05 17:12 | 41.13412 | 16.74501 | 150 ft | 66 kts | 69° |
| 2026-05-05 17:12 | 41.13644 | 16.75319 | 151 ft | 123 kts | 69° |
| 2026-05-05 17:13 | 41.14001 | 16.76580 | 203 ft | 163 kts | 69° |
| 2026-05-05 17:13 | 41.14406 | 16.77934 | 794 ft | 158 kts | 69° |
| 2026-05-05 17:13 | 41.14824 | 16.79300 | 1296 ft | 162 kts | 71° |
| 2026-05-05 17:13 | 41.15240 | 16.80692 | 1798 ft | 162 kts | 70° |
| 2026-05-05 17:14 | 41.15650 | 16.82122 | 2119 ft | 174 kts | 71° |
| 2026-05-05 17:14 | 41.16100 | 16.83695 | 2443 ft | 189 kts | 71° |
| 2026-05-05 17:14 | 41.16597 | 16.85376 | 2828 ft | 202 kts | 70° |
| 2026-05-05 17:14 | 41.17132 | 16.87163 | 3118 ft | 222 kts | 70° |
| 2026-05-05 17:15 | 41.17724 | 16.89202 | 3314 ft | 251 kts | 70° |
| 2026-05-05 17:15 | 41.18382 | 16.91458 | 3806 ft | 269 kts | 69° |
| 2026-05-05 17:15 | 41.19077 | 16.93799 | 4592 ft | 276 kts | 69° |
| 2026-05-05 17:15 | 41.19780 | 16.96186 | 5403 ft | 280 kts | 69° |
| 2026-05-05 17:16 | 41.20440 | 16.98644 | 6233 ft | 285 kts | 76° |
| 2026-05-05 17:16 | 41.20683 | 17.01276 | 6988 ft | 290 kts | 91° |
| 2026-05-05 17:16 | 41.20403 | 17.03939 | 7725 ft | 294 kts | 103° |
| 2026-05-05 17:16 | 41.19949 | 17.06606 | 8515 ft | 297 kts | 103° |
| 2026-05-05 17:17 | 41.19493 | 17.09305 | 9273 ft | 302 kts | 103° |
| 2026-05-05 17:17 | 41.19035 | 17.12045 | 10001 ft | 307 kts | 103° |
| 2026-05-05 17:17 | 41.18447 | 17.14790 | 10662 ft | 311 kts | 114° |
| 2026-05-05 17:17 | 41.17400 | 17.17328 | 11160 ft | 322 kts | 128° |
| 2026-05-05 17:18 | 41.15899 | 17.19661 | 11336 ft | 343 kts | 134° |
| 2026-05-05 17:18 | 41.14229 | 17.22066 | 11472 ft | 365 kts | 135° |
| 2026-05-05 17:18 | 41.12431 | 17.24562 | 11725 ft | 381 kts | 136° |
| 2026-05-05 17:18 | 41.10566 | 17.27111 | 12288 ft | 387 kts | 136° |
| 2026-05-05 17:19 | 41.08680 | 17.29681 | 12912 ft | 391 kts | 136° |
| 2026-05-05 17:19 | 41.06780 | 17.32274 | 13560 ft | 394 kts | 136° |
| 2026-05-05 17:19 | 41.04866 | 17.34893 | 14143 ft | 398 kts | 136° |
| 2026-05-05 17:19 | 41.02758 | 17.37786 | 14745 ft | 401 kts | 135° |
| 2026-05-05 17:20 | 41.00991 | 17.40217 | 15241 ft | 405 kts | 135° |
| 2026-05-05 17:20 | 40.99054 | 17.42885 | 15709 ft | 410 kts | 135° |
| 2026-05-05 17:20 | 40.97073 | 17.45611 | 16256 ft | 413 kts | 135° |
| 2026-05-05 17:20 | 40.95067 | 17.48366 | 16810 ft | 417 kts | 135° |
| 2026-05-05 17:21 | 40.93044 | 17.51135 | 17380 ft | 421 kts | 135° |
| 2026-05-05 17:21 | 40.90995 | 17.53935 | 17951 ft | 424 kts | 135° |
| 2026-05-05 17:21 | 40.88937 | 17.56746 | 18491 ft | 428 kts | 135° |
| 2026-05-05 17:22 | 40.84753 | 17.62462 | 19431 ft | 437 kts | 136° |
| 2026-05-05 17:22 | 40.82632 | 17.65355 | 19887 ft | 441 kts | 136° |
| 2026-05-05 17:22 | 40.80482 | 17.68284 | 20341 ft | 444 kts | 136° |
| 2026-05-05 17:22 | 40.78322 | 17.71227 | 20787 ft | 448 kts | 136° |
| 2026-05-05 17:23 | 40.76146 | 17.74192 | 21198 ft | 451 kts | 136° |
| 2026-05-05 17:23 | 40.73950 | 17.77183 | 21545 ft | 457 kts | 136° |
| 2026-05-05 17:23 | 40.71727 | 17.80208 | 21910 ft | 461 kts | 136° |
| 2026-05-05 17:23 | 40.69487 | 17.83246 | 22279 ft | 464 kts | 136° |
| 2026-05-05 17:24 | 40.67225 | 17.86306 | 22642 ft | 467 kts | 136° |
| 2026-05-05 17:24 | 40.64983 | 17.89337 | 23015 ft | 470 kts | 137° |
| 2026-05-05 17:24 | 40.62691 | 17.92434 | 23378 ft | 473 kts | 137° |
| 2026-05-05 17:24 | 40.60383 | 17.95547 | 23716 ft | 476 kts | 137° |
| 2026-05-05 17:25 | 40.58058 | 17.98683 | 24016 ft | 479 kts | 137° |
| 2026-05-05 17:25 | 40.56519 | 18.00761 | 24204 ft | 480 kts | 137° |
| 2026-05-05 17:25 | 40.53401 | 18.04971 | 24741 ft | 479 kts | 136° |
| 2026-05-05 17:25 | 40.51071 | 18.08111 | 25093 ft | 480 kts | 136° |
| 2026-05-05 17:26 | 40.48734 | 18.11254 | 25409 ft | 482 kts | 136° |
| 2026-05-05 17:26 | 40.46384 | 18.14408 | 25721 ft | 484 kts | 136° |
| 2026-05-05 17:26 | 40.44023 | 18.17577 | 26017 ft | 486 kts | 137° |
| 2026-05-05 17:26 | 40.41651 | 18.20754 | 26304 ft | 488 kts | 137° |
| 2026-05-05 17:27 | 40.39272 | 18.23938 | 26708 ft | 488 kts | 137° |
| 2026-05-05 17:27 | 40.36896 | 18.27112 | 27111 ft | 487 kts | 137° |
| 2026-05-05 17:27 | 40.34518 | 18.30285 | 27512 ft | 487 kts | 137° |
| 2026-05-05 17:27 | 40.32140 | 18.33454 | 27920 ft | 487 kts | 137° |
| 2026-05-05 17:28 | 40.29765 | 18.36618 | 28334 ft | 487 kts | 137° |
| 2026-05-05 17:28 | 40.27419 | 18.39745 | 28747 ft | 487 kts | 137° |
| 2026-05-05 17:28 | 40.25048 | 18.42902 | 29178 ft | 486 kts | 137° |
| 2026-05-05 17:28 | 40.22678 | 18.46052 | 29546 ft | 488 kts | 137° |
| 2026-05-05 17:29 | 40.20252 | 18.49266 | 29946 ft | 488 kts | 137° |
| 2026-05-05 17:29 | 40.17861 | 18.52430 | 30336 ft | 489 kts | 137° |
| 2026-05-05 17:29 | 40.15502 | 18.55552 | 30684 ft | 489 kts | 137° |
| 2026-05-05 17:29 | 40.13111 | 18.58715 | 31044 ft | 489 kts | 137° |
| 2026-05-05 17:30 | 40.10728 | 18.61865 | 31404 ft | 489 kts | 137° |
| 2026-05-05 17:30 | 40.08330 | 18.65027 | 31764 ft | 489 kts | 137° |
| 2026-05-05 17:30 | 40.05935 | 18.68178 | 32135 ft | 489 kts | 137° |
| 2026-05-05 17:30 | 40.03538 | 18.71332 | 32509 ft | 489 kts | 136° |
| 2026-05-05 17:31 | 40.01147 | 18.74483 | 32859 ft | 489 kts | 136° |
| 2026-05-05 17:31 | 39.98753 | 18.77635 | 33235 ft | 489 kts | 136° |
| 2026-05-05 17:31 | 39.96362 | 18.80779 | 33627 ft | 488 kts | 136° |
| 2026-05-05 17:31 | 39.93973 | 18.83915 | 33995 ft | 488 kts | 136° |
| 2026-05-05 17:32 | 39.91577 | 18.87054 | 34335 ft | 488 kts | 136° |
| 2026-05-05 17:32 | 39.89184 | 18.90180 | 34662 ft | 487 kts | 136° |
| 2026-05-05 17:32 | 39.86799 | 18.93296 | 34984 ft | 486 kts | 136° |
| 2026-05-05 17:33 | 39.82031 | 18.99596 | 35106 ft | 494 kts | 132° |
| 2026-05-05 17:33 | 39.77859 | 19.06798 | 35100 ft | 500 kts | 126° |
| 2026-05-05 17:34 | 39.73779 | 19.14127 | 35101 ft | 501 kts | 126° |
| 2026-05-05 17:34 | 39.70371 | 19.20214 | 35106 ft | 501 kts | 126° |
| 2026-05-05 17:35 | 39.66264 | 19.27524 | 35109 ft | 501 kts | 126° |
| 2026-05-05 17:35 | 39.61484 | 19.36006 | 35118 ft | 501 kts | 126° |
| 2026-05-05 17:36 | 39.57371 | 19.43301 | 35130 ft | 502 kts | 126° |
| 2026-05-05 17:36 | 39.53918 | 19.49410 | 35140 ft | 502 kts | 126° |
| 2026-05-05 17:37 | 39.49790 | 19.56707 | 35146 ft | 502 kts | 126° |
| 2026-05-05 17:37 | 39.45654 | 19.64008 | 35150 ft | 502 kts | 126° |
| 2026-05-05 17:38 | 39.41508 | 19.71286 | 35123 ft | 502 kts | 126° |
| 2026-05-05 17:38 | 39.37361 | 19.78555 | 35143 ft | 502 kts | 126° |
| 2026-05-05 17:39 | 39.33213 | 19.85816 | 35151 ft | 502 kts | 126° |
| 2026-05-05 17:39 | 39.29053 | 19.93075 | 35148 ft | 503 kts | 126° |
| 2026-05-05 17:40 | 39.24924 | 20.00261 | 35145 ft | 503 kts | 126° |
| 2026-05-05 17:40 | 39.20758 | 20.07500 | 35145 ft | 503 kts | 126° |
| 2026-05-05 17:41 | 39.16586 | 20.14735 | 35149 ft | 503 kts | 126° |
| 2026-05-05 17:41 | 39.14495 | 20.18356 | 34911 ft | 504 kts | 126° |
| 2026-05-05 17:41 | 39.12401 | 20.21973 | 34608 ft | 504 kts | 126° |
| 2026-05-05 17:41 | 39.10305 | 20.25587 | 34216 ft | 504 kts | 125° |
| 2026-05-05 17:42 | 39.08203 | 20.29207 | 33787 ft | 504 kts | 125° |
| 2026-05-05 17:42 | 39.06105 | 20.32822 | 33363 ft | 505 kts | 126° |
| 2026-05-05 17:42 | 39.03999 | 20.36447 | 33084 ft | 506 kts | 126° |
| 2026-05-05 17:43 | 38.99773 | 20.43706 | 33123 ft | 507 kts | 126° |
| 2026-05-05 17:43 | 38.95542 | 20.50971 | 33125 ft | 509 kts | 126° |
| 2026-05-05 17:44 | 38.91290 | 20.58246 | 33126 ft | 509 kts | 126° |
| 2026-05-05 17:44 | 38.87028 | 20.65513 | 33110 ft | 509 kts | 126° |
| 2026-05-05 17:45 | 38.82789 | 20.72721 | 33112 ft | 510 kts | 126° |
| 2026-05-05 17:45 | 38.78518 | 20.79981 | 33122 ft | 510 kts | 126° |
| 2026-05-05 17:46 | 38.74235 | 20.87243 | 33123 ft | 511 kts | 126° |
| 2026-05-05 17:46 | 38.69954 | 20.94476 | 33120 ft | 512 kts | 126° |
| 2026-05-05 17:47 | 38.65662 | 21.01724 | 33125 ft | 512 kts | 126° |
| 2026-05-05 17:47 | 38.61352 | 21.08982 | 33133 ft | 512 kts | 126° |
| 2026-05-05 17:48 | 38.57030 | 21.16235 | 33124 ft | 513 kts | 126° |
| 2026-05-05 17:48 | 38.52699 | 21.23499 | 33121 ft | 514 kts | 126° |
| 2026-05-05 17:49 | 38.48358 | 21.30767 | 33105 ft | 514 kts | 126° |
| 2026-05-05 17:49 | 38.44022 | 21.38005 | 33121 ft | 513 kts | 126° |
| 2026-05-05 17:50 | 38.39680 | 21.45236 | 33115 ft | 513 kts | 126° |
| 2026-05-05 17:50 | 38.35335 | 21.52462 | 33120 ft | 514 kts | 126° |
| 2026-05-05 17:51 | 38.31022 | 21.59610 | 33134 ft | 513 kts | 126° |
| 2026-05-05 17:51 | 38.26671 | 21.66810 | 33130 ft | 513 kts | 126° |
| 2026-05-05 17:52 | 38.22331 | 21.73960 | 33132 ft | 513 kts | 126° |
| 2026-05-05 17:52 | 38.17963 | 21.81133 | 33147 ft | 513 kts | 126° |
| 2026-05-05 17:53 | 38.13590 | 21.88318 | 32859 ft | 514 kts | 126° |
| 2026-05-05 17:53 | 38.11401 | 21.91913 | 32598 ft | 514 kts | 126° |
| 2026-05-05 17:53 | 38.09211 | 21.95505 | 32331 ft | 515 kts | 126° |
| 2026-05-05 17:53 | 38.07015 | 21.99104 | 32076 ft | 515 kts | 126° |
| 2026-05-05 17:54 | 38.04818 | 22.02702 | 31824 ft | 516 kts | 126° |
| 2026-05-05 17:54 | 38.02618 | 22.06297 | 31570 ft | 517 kts | 126° |
| 2026-05-05 17:54 | 38.00410 | 22.09897 | 31320 ft | 518 kts | 126° |
| 2026-05-05 17:54 | 37.98189 | 22.13514 | 31087 ft | 519 kts | 126° |
| 2026-05-05 17:55 | 37.95966 | 22.17127 | 30844 ft | 520 kts | 126° |
| 2026-05-05 17:55 | 37.93740 | 22.20746 | 30593 ft | 521 kts | 126° |
| 2026-05-05 17:55 | 37.91507 | 22.24376 | 30355 ft | 522 kts | 126° |
| 2026-05-05 17:55 | 37.89271 | 22.28008 | 30098 ft | 523 kts | 127° |
| 2026-05-05 17:56 | 37.87037 | 22.31630 | 29812 ft | 523 kts | 127° |
| 2026-05-05 17:56 | 37.84792 | 22.35260 | 29517 ft | 523 kts | 127° |
| 2026-05-05 17:56 | 37.82550 | 22.38879 | 29222 ft | 522 kts | 127° |
| 2026-05-05 17:56 | 37.80314 | 22.42487 | 28949 ft | 521 kts | 127° |
| 2026-05-05 17:57 | 37.78086 | 22.46084 | 28684 ft | 520 kts | 126° |
| 2026-05-05 17:57 | 37.75846 | 22.49701 | 28369 ft | 521 kts | 126° |
| 2026-05-05 17:57 | 37.73889 | 22.53527 | 27990 ft | 518 kts | 112° |
| 2026-05-05 17:57 | 37.72754 | 22.57804 | 27704 ft | 511 kts | 97° |
| 2026-05-05 17:58 | 37.72132 | 22.62221 | 27415 ft | 511 kts | 95° |
| 2026-05-05 17:58 | 37.71554 | 22.66641 | 27132 ft | 511 kts | 95° |
| 2026-05-05 17:58 | 37.70989 | 22.71024 | 26856 ft | 512 kts | 95° |
| 2026-05-05 17:58 | 37.70423 | 22.75462 | 26569 ft | 512 kts | 95° |
| 2026-05-05 17:59 | 37.69855 | 22.79955 | 25928 ft | 511 kts | 95° |
| 2026-05-05 17:59 | 37.69299 | 22.84385 | 25102 ft | 511 kts | 95° |
| 2026-05-05 17:59 | 37.68755 | 22.88817 | 24226 ft | 509 kts | 95° |
| 2026-05-05 17:59 | 37.68232 | 22.93149 | 23345 ft | 504 kts | 95° |
| 2026-05-05 18:00 | 37.67715 | 22.97495 | 22460 ft | 497 kts | 95° |
| 2026-05-05 18:00 | 37.67205 | 23.01776 | 21550 ft | 489 kts | 95° |
| 2026-05-05 18:00 | 37.66702 | 23.05989 | 20668 ft | 481 kts | 95° |
| 2026-05-05 18:00 | 37.66209 | 23.10127 | 19823 ft | 473 kts | 95° |
| 2026-05-05 18:01 | 37.65803 | 23.14196 | 19001 ft | 461 kts | 88° |
| 2026-05-05 18:01 | 37.66129 | 23.18130 | 18165 ft | 443 kts | 71° |
| 2026-05-05 18:01 | 37.67307 | 23.21623 | 17250 ft | 426 kts | 53° |
| 2026-05-05 18:01 | 37.69093 | 23.24522 | 16370 ft | 415 kts | 46° |
| 2026-05-05 18:02 | 37.70984 | 23.27263 | 15495 ft | 409 kts | 45° |
| 2026-05-05 18:02 | 37.72854 | 23.29919 | 14653 ft | 402 kts | 45° |
| 2026-05-05 18:02 | 37.74715 | 23.32519 | 13820 ft | 396 kts | 45° |
| 2026-05-05 18:02 | 37.76561 | 23.35069 | 12903 ft | 390 kts | 45° |
| 2026-05-05 18:03 | 37.78378 | 23.37576 | 11998 ft | 385 kts | 45° |
| 2026-05-05 18:03 | 37.80176 | 23.40059 | 11291 ft | 380 kts | 45° |
| 2026-05-05 18:03 | 37.81955 | 23.42518 | 11110 ft | 373 kts | 45° |
| 2026-05-05 18:03 | 37.83511 | 23.44966 | 10816 ft | 345 kts | 57° |
| 2026-05-05 18:04 | 37.84267 | 23.47745 | 10528 ft | 328 kts | 80° |
| 2026-05-05 18:04 | 37.84096 | 23.50540 | 10239 ft | 316 kts | 104° |
| 2026-05-05 18:04 | 37.83065 | 23.52920 | 9951 ft | 306 kts | 130° |
| 2026-05-05 18:04 | 37.81497 | 23.54614 | 9605 ft | 297 kts | 139° |
| 2026-05-05 18:05 | 37.79921 | 23.56344 | 8965 ft | 296 kts | 136° |
| 2026-05-05 18:05 | 37.78414 | 23.58087 | 8348 ft | 294 kts | 135° |
| 2026-05-05 18:05 | 37.76914 | 23.59837 | 7709 ft | 294 kts | 135° |
| 2026-05-05 18:05 | 37.75314 | 23.61430 | 7066 ft | 294 kts | 153° |
| 2026-05-05 18:06 | 37.73396 | 23.62296 | 6431 ft | 293 kts | 164° |
| 2026-05-05 18:06 | 37.72097 | 23.62741 | 6089 ft | 289 kts | 165° |
| 2026-05-05 18:06 | 37.69696 | 23.63967 | 5584 ft | 272 kts | 140° |
| 2026-05-05 18:06 | 37.68583 | 23.65762 | 5206 ft | 259 kts | 109° |
| 2026-05-05 18:07 | 37.68374 | 23.67936 | 4784 ft | 246 kts | 77° |
| 2026-05-05 18:07 | 37.69031 | 23.69842 | 4348 ft | 233 kts | 47° |
| 2026-05-05 18:07 | 37.70225 | 23.71152 | 3929 ft | 225 kts | 34° |
| 2026-05-05 18:07 | 37.71483 | 23.72327 | 3512 ft | 221 kts | 34° |
| 2026-05-05 18:08 | 37.72696 | 23.73466 | 3104 ft | 218 kts | 34° |
| 2026-05-05 18:08 | 37.73860 | 23.74566 | 2995 ft | 201 kts | 34° |
| 2026-05-05 18:08 | 37.74959 | 23.75603 | 3001 ft | 195 kts | 34° |
| 2026-05-05 18:08 | 37.76037 | 23.76621 | 3007 ft | 193 kts | 34° |
| 2026-05-05 18:09 | 37.77108 | 23.77633 | 3012 ft | 192 kts | 35° |
| 2026-05-05 18:09 | 37.78171 | 23.78637 | 3048 ft | 191 kts | 35° |
| 2026-05-05 18:09 | 37.79231 | 23.79640 | 3011 ft | 190 kts | 35° |
| 2026-05-05 18:09 | 37.80285 | 23.80636 | 3004 ft | 189 kts | 35° |
| 2026-05-05 18:10 | 37.81327 | 23.81622 | 2904 ft | 189 kts | 35° |
| 2026-05-05 18:10 | 37.82379 | 23.82618 | 2700 ft | 189 kts | 35° |
| 2026-05-05 18:10 | 37.83431 | 23.83615 | 2466 ft | 189 kts | 35° |
| 2026-05-05 18:10 | 37.84488 | 23.84616 | 2214 ft | 190 kts | 36° |
| 2026-05-05 18:11 | 37.85524 | 23.85598 | 1968 ft | 180 kts | 36° |
| 2026-05-05 18:11 | 37.86475 | 23.86500 | 1752 ft | 161 kts | 36° |
| 2026-05-05 18:11 | 37.87342 | 23.87323 | 1536 ft | 152 kts | 36° |
| 2026-05-05 18:11 | 37.88168 | 23.88107 | 1340 ft | 149 kts | 36° |
| 2026-05-05 18:12 | 37.88991 | 23.88887 | 1130 ft | 147 kts | 36° |
| 2026-05-05 18:12 | 37.89798 | 23.89652 | 939 ft | 144 kts | 36° |
| 2026-05-05 18:12 | 37.90595 | 23.90410 | 744 ft | 142 kts | 36° |
| 2026-05-05 18:12 | 37.91379 | 23.91153 | 559 ft | 141 kts | 36° |
| 2026-05-05 18:13 | 37.92140 | 23.91874 | 381 ft | 140 kts | 36° |
| 2026-05-05 18:13 | 37.92883 | 23.92588 | 297 ft | 120 kts | 37° |
| 2026-05-05 18:13 | 37.93410 | 23.93092 | 291 ft | 70 kts | 38° |
| 2026-05-05 18:13 | 37.93574 | 23.93309 | 293 ft | 21 kts | 58° |
| 2026-05-05 18:14 | 37.93606 | 23.93385 | 295 ft | 0 kts | 67° |
| 2026-05-05 18:14 | 37.93613 | 23.93405 | 296 ft | 6 kts | 66° |
| 2026-05-05 18:14 | 37.93626 | 23.93452 | 298 ft | 5 kts | 75° |
| 2026-05-05 18:15 | 37.93618 | 23.93483 | 298 ft | 3 kts | 123° |
| 2026-05-05 18:15 | 37.93609 | 23.93500 | 299 ft | 5 kts | 128° |
| 2026-05-05 18:15 | 37.93562 | 23.93508 | 301 ft | 8 kts | 200° |
| 2026-05-05 18:15 | 37.93512 | 23.93464 | 303 ft | 10 kts | 216° |
| 2026-05-05 18:16 | 37.93447 | 23.93424 | 299 ft | 9 kts | 164° |
| 2026-05-05 18:16 | 37.93403 | 23.93488 | 300 ft | 10 kts | 127° |
| 2026-05-05 18:16 | 37.93355 | 23.93567 | 301 ft | 12 kts | 127° |
| 2026-05-05 18:16 | 37.93300 | 23.93659 | 301 ft | 14 kts | 127° |
| 2026-05-05 18:17 | 37.93236 | 23.93766 | 301 ft | 16 kts | 127° |
| 2026-05-05 18:17 | 37.93164 | 23.93890 | 301 ft | 19 kts | 127° |
| 2026-05-05 18:17 | 37.93095 | 23.94013 | 304 ft | 11 kts | 106° |
| 2026-05-05 18:17 | 37.93136 | 23.94095 | 301 ft | 13 kts | 38° |
| 2026-05-05 18:18 | 37.93217 | 23.94169 | 304 ft | 16 kts | 35° |
| 2026-05-05 18:18 | 37.93284 | 23.94263 | 301 ft | 13 kts | 89° |
| 2026-05-05 18:18 | 37.93235 | 23.94367 | 301 ft | 15 kts | 128° |
| 2026-05-05 18:18 | 37.93179 | 23.94465 | 301 ft | 10 kts | 124° |
| 2026-05-05 18:19 | 37.93171 | 23.94545 | 304 ft | 10 kts | 43° |
| 2026-05-05 18:19 | 37.93232 | 23.94608 | 302 ft | 13 kts | 36° |
| 2026-05-05 18:19 | 37.93311 | 23.94683 | 301 ft | 15 kts | 37° |
| 2026-05-05 18:19 | 37.93404 | 23.94772 | 302 ft | 17 kts | 37° |
| 2026-05-05 18:20 | 37.93480 | 23.94845 | 301 ft | 14 kts | 37° |
| 2026-05-05 18:20 | 37.93535 | 23.94896 | 301 ft | 13 kts | 37° |
| 2026-05-05 18:20 | 37.93613 | 23.94971 | 300 ft | 1 kts | 37° |
| 2026-05-05 18:20 | 37.93616 | 23.94974 | 302 ft | 2 kts | 37° |
| 2026-05-05 18:21 | 37.93632 | 23.94989 | 300 ft | 4 kts | 37° |
| 2026-05-05 18:21 | 37.93662 | 23.95018 | 302 ft | 7 kts | 37° |
| 2026-05-05 18:21 | 37.93706 | 23.95060 | 304 ft | 9 kts | 37° |
| 2026-05-05 18:21 | 37.93740 | 23.95089 | 301 ft | 4 kts | 18° |
| 2026-05-05 18:22 | 37.93764 | 23.95068 | 301 ft | 5 kts | 311° |
| 2026-05-05 18:22 | 37.93771 | 23.95058 | 300 ft | 1 kts | 311° |
| 2026-05-05 18:22 | 37.93778 | 23.95045 | 301 ft | 3 kts | 306° |
| 2026-05-05 18:22 | 37.93793 | 23.95022 | 302 ft | 0 kts | 307° |
| 2026-05-05 18:23 | 37.93794 | 23.95020 | 302 ft | 0 kts | 307° |